Time;durP1;ratioP1;P1;durP2;ratioP2;P2;SDS_P1;SDS_P2;PMS_P1;PMS_P2;Temp;Humidity;BMP_temperature;BMP_pressure;BME280_temperature;BME280_humidity;BME280_pressure;Samples;Min_cycle;Max_cycle;Signal;HPM_P1;HPM_P2
2022/11/26 00:01:20;;;;;;;5.82;5.32;;;17.50;70.20;;;;;;5033966;28;20171;-69
2022/11/26 00:03:46;;;;;;;5.68;5.13;;;17.50;70.20;;;;;;5050745;28;20261;-69
2022/11/26 00:06:28;;;;;;;5.90;5.32;;;17.50;70.20;;;;;;5033759;28;20297;-69
2022/11/26 00:08:54;;;;;;;5.55;4.82;;;17.50;70.20;;;;;;5050748;28;20179;-69
2022/11/26 00:11:20;;;;;;;6.00;5.40;;;17.50;70.20;;;;;;5034385;28;20273;-68
2022/11/26 00:13:45;;;;;;;5.70;4.90;;;17.50;70.20;;;;;;5017935;28;20289;-68
2022/11/26 00:16:13;;;;;;;5.70;5.10;;;17.50;70.20;;;;;;5050351;28;20240;-69
2022/11/26 00:18:40;;;;;;;5.53;4.93;;;17.50;70.20;;;;;;5034063;28;20274;-69
2022/11/26 00:21:18;;;;;;;6.05;4.97;;;17.50;70.20;;;;;;5034036;28;20248;-69
2022/11/26 00:23:44;;;;;;;5.50;5.00;;;17.50;70.20;;;;;;5036272;28;20197;-69
2022/11/26 00:26:18;;;;;;;5.25;4.75;;;17.50;70.20;;;;;;5037714;28;20206;-69
2022/11/26 00:28:59;;;;;;;6.03;5.30;;;17.60;70.30;;;;;;5038015;28;20183;-68
2022/11/26 00:31:27;;;;;;;5.45;4.93;;;17.50;70.20;;;;;;5055575;28;20181;-69
2022/11/26 00:33:52;;;;;;;5.38;4.88;;;17.50;70.20;;;;;;5037969;28;20199;-69
2022/11/26 00:36:31;;;;;;;5.68;5.05;;;17.50;70.20;;;;;;5037288;28;20281;-69
2022/11/26 00:39:22;;;;;;;5.40;4.90;;;17.50;70.20;;;;;;5037760;28;20222;-69
2022/11/26 00:41:51;;;;;;;5.72;5.13;;;17.50;70.20;;;;;;5037972;28;20308;-68
2022/11/26 00:44:24;;;;;;;7.03;5.47;;;17.50;70.20;;;;;;5020969;28;20189;-68
2022/11/26 00:46:51;;;;;;;5.63;5.10;;;17.50;70.20;;;;;;5055234;28;20186;-69
2022/11/26 00:49:17;;;;;;;5.25;4.75;;;17.50;70.20;;;;;;5037385;28;20186;-69
2022/11/26 00:51:45;;;;;;;5.85;4.97;;;17.50;70.20;;;;;;5037389;28;20194;-69
2022/11/26 00:54:15;;;;;;;5.53;4.90;;;17.50;70.20;;;;;;5037249;28;20190;-69
2022/11/26 00:56:41;;;;;;;5.80;4.70;;;17.50;70.20;;;;;;5037143;28;20332;-69
2022/11/26 00:59:13;;;;;;;5.00;4.50;;;17.50;70.20;;;;;;5055053;28;20282;-69
2022/11/26 01:01:39;;;;;;;5.90;4.93;;;17.50;70.20;;;;;;5037214;28;20186;-69
2022/11/26 01:04:05;;;;;;;7.20;5.07;;;17.60;70.30;;;;;;5037313;28;20183;-69
2022/11/26 01:06:41;;;;;;;5.07;4.57;;;17.50;71.00;;;;;;5037155;28;20568;-69
2022/11/26 01:09:20;;;;;;;5.25;4.65;;;17.50;70.20;;;;;;5054839;28;20216;-69
2022/11/26 01:11:47;;;;;;;5.75;4.78;;;17.50;70.20;;;;;;5037011;28;20189;-69
2022/11/26 01:14:17;;;;;;;5.28;4.78;;;17.50;70.20;;;;;;5054807;28;20171;-68
2022/11/26 01:16:45;;;;;;;5.28;4.78;;;17.50;70.20;;;;;;5020270;28;20197;-69
2022/11/26 01:19:16;;;;;;;5.85;4.93;;;17.50;70.20;;;;;;5036828;28;20210;-69
2022/11/26 01:21:42;;;;;;;5.25;4.75;;;17.50;70.20;;;;;;5036947;28;20259;-69
2022/11/26 01:24:08;;;;;;;4.82;4.25;;;17.50;70.20;;;;;;5035412;28;20269;-68
2022/11/26 01:26:40;;;;;;;4.88;4.32;;;17.50;70.20;;;;;;5053043;28;20249;-69
2022/11/26 01:29:13;;;;;;;5.78;4.57;;;17.50;70.20;;;;;;5036713;28;20228;-69
2022/11/26 01:31:38;;;;;;;5.45;4.95;;;17.50;70.20;;;;;;5036695;28;20205;-69
2022/11/26 01:34:04;;;;;;;5.53;4.45;;;17.60;70.30;;;;;;5036208;28;20179;-68
2022/11/26 01:36:38;;;;;;;5.95;4.25;;;17.50;70.20;;;;;;5036348;28;20185;-69
2022/11/26 01:39:12;;;;;;;5.18;4.68;;;17.50;70.20;;;;;;5054190;28;20281;-69
2022/11/26 01:41:47;;;;;;;4.70;4.20;;;17.50;70.20;;;;;;5036530;28;20634;-69
2022/11/26 01:44:23;;;;;;;4.97;4.40;;;17.60;70.30;;;;;;5052970;28;20206;-68
2022/11/26 01:46:50;;;;;;;4.57;4.18;;;17.50;70.20;;;;;;5036545;28;20178;-69
2022/11/26 01:49:22;;;;;;;5.35;4.53;;;17.50;70.20;;;;;;5025222;28;20570;-69
2022/11/26 01:52:04;;;;;;;4.80;4.28;;;17.50;70.20;;;;;;5033202;28;20198;-68
2022/11/26 01:54:35;;;;;;;4.65;4.25;;;17.50;70.20;;;;;;5032534;28;20211;-68
2022/11/26 01:57:23;;;;;;;4.65;4.07;;;17.50;70.20;;;;;;5034042;28;20188;-69
2022/11/26 02:00:00;;;;;;;4.72;4.15;;;17.50;70.20;;;;;;5024480;28;20208;-69
2022/11/26 02:02:27;;;;;;;4.55;4.15;;;17.50;70.20;;;;;;5036343;28;20185;-69
2022/11/26 02:05:24;;;;;;;4.97;4.13;;;17.60;70.30;;;;;;5036060;28;20305;-68
2022/11/26 02:07:51;;;;;;;4.88;4.20;;;17.50;70.20;;;;;;5032592;28;20194;-68
2022/11/26 02:10:18;;;;;;;4.45;3.95;;;17.50;70.20;;;;;;5052517;28;20217;-68
2022/11/26 02:12:44;;;;;;;4.68;4.00;;;17.50;70.20;;;;;;5036239;28;20186;-69
2022/11/26 02:15:11;;;;;;;4.55;3.75;;;17.50;70.20;;;;;;5035707;28;20232;-69
2022/11/26 02:18:06;;;;;;;4.57;4.18;;;17.50;70.20;;;;;;5035758;28;20689;-68
2022/11/26 02:20:59;;;;;;;4.30;3.90;;;17.50;70.20;;;;;;5052518;28;20211;-69
2022/11/26 02:24:17;;;;;;;4.75;3.90;;;17.50;70.20;;;;;;5035968;28;20182;-69
2022/11/26 02:26:48;;;;;;;4.53;3.88;;;17.50;70.20;;;;;;5035518;28;20289;-69
2022/11/26 02:29:38;;;;;;;4.20;3.80;;;17.50;70.20;;;;;;5035492;28;20222;-69
2022/11/26 02:32:15;;;;;;;4.22;3.88;;;17.50;70.20;;;;;;5035701;28;20210;-68
2022/11/26 02:35:00;;;;;;;4.28;3.85;;;17.50;70.20;;;;;;5052113;28;20259;-68
2022/11/26 02:37:51;;;;;;;3.50;3.20;;;17.50;70.20;;;;;;5053286;28;20221;-69
2022/11/26 02:40:19;;;;;;;4.45;3.72;;;17.50;70.20;;;;;;5035343;28;20301;-69
2022/11/26 02:42:46;;;;;;;3.60;3.30;;;17.50;70.20;;;;;;5035757;28;20202;-69
2022/11/26 02:45:26;;;;;;;3.90;3.17;;;17.50;70.20;;;;;;5051090;28;20637;-68
2022/11/26 02:47:56;;;;;;;4.15;3.78;;;17.50;70.20;;;;;;5053008;28;20167;-68
2022/11/26 02:50:31;;;;;;;4.00;3.25;;;17.50;70.20;;;;;;5035153;28;20175;-69
2022/11/26 02:52:59;;;;;;;3.75;3.35;;;17.50;70.20;;;;;;5035345;28;20174;-68
2022/11/26 02:55:32;;;;;;;5.25;3.95;;;17.50;70.20;;;;;;5034661;28;20222;-69
2022/11/26 02:58:00;;;;;;;4.93;3.65;;;17.50;70.20;;;;;;5036300;28;20245;-69
2022/11/26 03:00:26;;;;;;;3.53;3.22;;;17.50;70.20;;;;;;5052862;28;20305;-69
2022/11/26 03:03:15;;;;;;;3.38;3.00;;;17.50;70.20;;;;;;5034841;28;20592;-69
2022/11/26 03:05:42;;;;;;;3.95;3.30;;;17.50;70.20;;;;;;5034643;28;20217;-69
2022/11/26 03:08:08;;;;;;;4.15;3.33;;;17.50;70.20;;;;;;5051731;28;20696;-69
2022/11/26 03:10:34;;;;;;;4.45;3.40;;;17.50;70.20;;;;;;5051520;28;20178;-69
2022/11/26 03:13:00;;;;;;;3.13;2.83;;;17.50;70.20;;;;;;5051267;28;20193;-69
2022/11/26 03:15:26;;;;;;;3.90;3.35;;;17.50;70.20;;;;;;5034532;28;20213;-69
2022/11/26 03:17:52;;;;;;;3.45;3.15;;;17.50;70.20;;;;;;5052478;28;20175;-69
2022/11/26 03:20:18;;;;;;;3.28;2.97;;;17.60;70.30;;;;;;5034471;28;20592;-69
2022/11/26 03:22:43;;;;;;;3.10;2.80;;;17.50;70.20;;;;;;5034626;28;20174;-69
2022/11/26 03:25:10;;;;;;;3.78;2.95;;;17.50;70.20;;;;;;5052007;28;20226;-69
2022/11/26 03:27:36;;;;;;;3.60;2.97;;;17.50;70.20;;;;;;5051216;28;20193;-69
2022/11/26 03:30:02;;;;;;;3.58;3.10;;;17.50;70.20;;;;;;5053686;28;20671;-69
2022/11/26 03:32:29;;;;;;;3.40;3.10;;;17.50;70.20;;;;;;5034590;28;20213;-69
2022/11/26 03:34:54;;;;;;;4.25;2.92;;;17.50;70.20;;;;;;5034419;28;20213;-69
2022/11/26 03:37:20;;;;;;;3.97;3.05;;;17.50;70.20;;;;;;5050897;28;20191;-69
2022/11/26 03:39:46;;;;;;;3.10;2.80;;;17.50;70.20;;;;;;5051188;28;20206;-69
2022/11/26 03:42:11;;;;;;;2.92;2.50;;;17.50;70.20;;;;;;5034923;28;20178;-69
2022/11/26 03:44:37;;;;;;;3.33;3.03;;;17.50;70.20;;;;;;5034243;28;20198;-68
2022/11/26 03:47:03;;;;;;;3.22;2.50;;;17.50;70.20;;;;;;5034329;28;20182;-69
2022/11/26 03:49:29;;;;;;;2.63;2.42;;;17.50;70.20;;;;;;5034287;28;20197;-69
2022/11/26 03:51:54;;;;;;;3.70;2.70;;;17.50;70.20;;;;;;5034239;28;20654;-68
2022/11/26 03:54:20;;;;;;;2.75;2.38;;;17.50;70.20;;;;;;5051068;28;20221;-69
2022/11/26 03:56:46;;;;;;;3.17;2.80;;;17.50;70.20;;;;;;5051374;28;20171;-69
2022/11/26 03:59:12;;;;;;;2.42;2.22;;;17.50;70.20;;;;;;5055306;28;20234;-69
2022/11/26 04:01:38;;;;;;;2.83;2.50;;;17.50;70.20;;;;;;5055166;28;20210;-67
2022/11/26 04:04:03;;;;;;;3.05;2.75;;;17.50;70.20;;;;;;5038267;28;20213;-68
2022/11/26 04:06:29;;;;;;;2.92;2.60;;;17.50;70.20;;;;;;5055016;28;20183;-69
2022/11/26 04:08:55;;;;;;;2.70;2.50;;;17.50;70.20;;;;;;5022001;28;20189;-69
2022/11/26 04:11:21;;;;;;;2.53;2.30;;;17.50;70.20;;;;;;5054833;28;20171;-69
2022/11/26 04:13:46;;;;;;;2.75;2.53;;;17.50;70.20;;;;;;5038010;28;20186;-69
2022/11/26 04:16:12;;;;;;;3.45;2.53;;;17.60;70.30;;;;;;5055584;28;20709;-69
2022/11/26 04:18:38;;;;;;;3.15;2.50;;;17.50;70.20;;;;;;5037830;28;20218;-69
2022/11/26 04:21:08;;;;;;;2.47;2.25;;;17.50;70.20;;;;;;5037955;28;20182;-69
2022/11/26 04:23:34;;;;;;;3.25;2.40;;;17.50;70.20;;;;;;5055716;28;20193;-69
2022/11/26 04:26:00;;;;;;;2.92;2.42;;;17.50;70.20;;;;;;5037522;28;20198;-69
2022/11/26 04:28:26;;;;;;;2.92;2.05;;;17.50;70.20;;;;;;5037883;28;20761;-69
2022/11/26 04:30:52;;;;;;;2.85;2.60;;;17.50;70.20;;;;;;5037733;28;20304;-69
2022/11/26 04:33:18;;;;;;;2.72;2.20;;;17.50;70.20;;;;;;5038146;28;20195;-69
2022/11/26 04:35:43;;;;;;;3.25;1.98;;;17.50;70.20;;;;;;5037931;28;20248;-69
2022/11/26 04:38:09;;;;;;;4.05;2.40;;;17.50;70.20;;;;;;5055381;28;20193;-69
2022/11/26 04:40:35;;;;;;;2.55;2.03;;;17.50;71.00;;;;;;5037640;28;20218;-68
2022/11/26 04:43:01;;;;;;;3.22;2.35;;;17.50;70.20;;;;;;5037624;28;20186;-69
2022/11/26 04:45:27;;;;;;;2.40;2.20;;;17.50;70.20;;;;;;5037169;28;20217;-69
2022/11/26 04:47:53;;;;;;;2.70;2.22;;;17.50;70.20;;;;;;5037891;28;20268;-69
2022/11/26 04:50:19;;;;;;;3.20;2.28;;;17.50;70.20;;;;;;5037547;28;20198;-69
2022/11/26 04:52:47;;;;;;;2.17;1.98;;;17.50;70.20;;;;;;5037467;28;20236;-68
2022/11/26 04:55:14;;;;;;;2.40;2.20;;;17.50;70.20;;;;;;5037414;28;20220;-69
2022/11/26 04:57:40;;;;;;;2.28;2.08;;;17.50;70.20;;;;;;5037301;28;20182;-69
2022/11/26 05:00:07;;;;;;;3.00;2.17;;;17.50;70.20;;;;;;5054898;28;20213;-69
2022/11/26 05:02:32;;;;;;;2.50;2.25;;;17.50;70.20;;;;;;5055014;28;20194;-69
2022/11/26 05:04:58;;;;;;;3.03;1.83;;;17.60;70.30;;;;;;5054803;28;20210;-69
2022/11/26 05:07:24;;;;;;;2.20;2.00;;;17.50;70.20;;;;;;5053818;28;20228;-69
2022/11/26 05:09:49;;;;;;;1.90;1.70;;;17.50;70.20;;;;;;5052705;28;20182;-69
2022/11/26 05:12:15;;;;;;;2.05;1.85;;;17.50;70.20;;;;;;5054732;28;20174;-68
2022/11/26 05:14:41;;;;;;;2.53;1.98;;;17.50;70.20;;;;;;5036906;28;20213;-68
2022/11/26 05:17:07;;;;;;;2.70;2.20;;;17.50;70.20;;;;;;5036769;28;20186;-69
2022/11/26 05:19:33;;;;;;;2.65;2.40;;;17.50;70.20;;;;;;5037069;28;20210;-68
2022/11/26 05:21:59;;;;;;;1.90;1.73;;;17.50;70.20;;;;;;5036924;28;20261;-69
2022/11/26 05:24:24;;;;;;;2.20;2.00;;;17.50;70.20;;;;;;5036968;28;20202;-69
2022/11/26 05:26:50;;;;;;;3.05;1.90;;;17.50;70.20;;;;;;5036728;28;20186;-68
2022/11/26 05:29:16;;;;;;;2.60;2.40;;;17.50;70.20;;;;;;5054569;28;20181;-69
2022/11/26 05:31:42;;;;;;;2.33;1.80;;;17.50;70.20;;;;;;5036981;28;20182;-69
2022/11/26 05:34:07;;;;;;;2.33;1.90;;;17.50;70.20;;;;;;5036621;28;20604;-68
2022/11/26 05:36:33;;;;;;;3.13;2.22;;;17.50;70.20;;;;;;5036631;28;20186;-68
2022/11/26 05:38:59;;;;;;;2.67;2.10;;;17.50;70.20;;;;;;5036388;28;20297;-68
2022/11/26 05:41:25;;;;;;;2.22;2.03;;;17.50;70.20;;;;;;5036569;28;20183;-69
2022/11/26 05:43:50;;;;;;;2.08;1.67;;;17.50;70.20;;;;;;5054411;28;20159;-69
2022/11/26 05:46:17;;;;;;;1.85;1.73;;;17.50;70.20;;;;;;5019647;28;20248;-69
2022/11/26 05:48:44;;;;;;;2.05;1.83;;;17.50;70.20;;;;;;5036429;28;20248;-70
2022/11/26 05:51:10;;;;;;;1.95;1.70;;;17.50;70.20;;;;;;5036584;28;20182;-69
2022/11/26 05:53:36;;;;;;;2.38;2.17;;;17.50;70.20;;;;;;5042682;28;20240;-70
2022/11/26 05:56:02;;;;;;;2.10;1.90;;;17.50;70.20;;;;;;5035814;28;20221;-69
2022/11/26 05:58:28;;;;;;;3.00;2.00;;;17.50;70.20;;;;;;5019391;28;20182;-70
2022/11/26 06:00:53;;;;;;;1.98;1.80;;;17.50;70.20;;;;;;5035978;28;20232;-69
2022/11/26 06:03:19;;;;;;;2.95;2.10;;;17.50;70.20;;;;;;5053953;28;20171;-70
2022/11/26 06:05:45;;;;;;;1.92;1.73;;;17.50;70.20;;;;;;5053698;28;20217;-69
2022/11/26 06:08:10;;;;;;;1.85;1.63;;;17.50;70.20;;;;;;5019682;28;20703;-69
2022/11/26 06:10:36;;;;;;;2.20;2.00;;;17.50;70.20;;;;;;5035790;28;20201;-69
2022/11/26 06:13:02;;;;;;;3.22;2.10;;;17.50;70.20;;;;;;5052448;28;20213;-69
2022/11/26 06:15:28;;;;;;;2.63;2.42;;;17.50;70.20;;;;;;5035610;28;20209;-69
2022/11/26 06:17:54;;;;;;;2.33;1.95;;;17.50;70.20;;;;;;5035980;28;20183;-69
2022/11/26 06:20:20;;;;;;;2.50;2.00;;;17.50;70.20;;;;;;5019406;28;20264;-69
2022/11/26 06:22:45;;;;;;;2.00;1.83;;;17.50;70.20;;;;;;5035604;28;20567;-70
2022/11/26 06:25:13;;;;;;;2.50;2.13;;;17.50;70.20;;;;;;5018803;28;20203;-69
2022/11/26 06:27:40;;;;;;;2.05;1.85;;;17.50;70.20;;;;;;5035868;28;20189;-69
2022/11/26 06:30:09;;;;;;;2.60;2.10;;;17.50;70.20;;;;;;5035545;28;20621;-69
2022/11/26 06:32:34;;;;;;;2.42;1.90;;;17.50;70.20;;;;;;5035543;28;20187;-69
2022/11/26 06:35:00;;;;;;;2.50;1.88;;;17.50;70.20;;;;;;5052070;28;20214;-69
2022/11/26 06:37:26;;;;;;;2.08;1.80;;;17.50;70.20;;;;;;5035487;28;20178;-69
2022/11/26 06:39:51;;;;;;;2.63;2.20;;;17.50;70.20;;;;;;5018839;28;20678;-69
2022/11/26 06:42:17;;;;;;;2.75;2.28;;;17.50;70.20;;;;;;5035533;28;20182;-69
2022/11/26 06:44:45;;;;;;;2.45;2.25;;;17.50;70.20;;;;;;5035312;28;20206;-70
2022/11/26 06:47:12;;;;;;;2.75;2.30;;;17.50;70.20;;;;;;5035259;28;20182;-69
2022/11/26 06:49:38;;;;;;;3.40;2.75;;;17.50;70.20;;;;;;5052037;28;20174;-69
2022/11/26 06:52:05;;;;;;;2.22;2.03;;;17.50;70.20;;;;;;5051774;28;20245;-70
2022/11/26 06:54:31;;;;;;;2.53;2.22;;;17.50;70.20;;;;;;5052708;28;20218;-69
2022/11/26 06:56:57;;;;;;;3.22;2.60;;;17.50;70.20;;;;;;5034933;28;20249;-70
2022/11/26 06:59:22;;;;;;;2.42;2.22;;;17.50;70.20;;;;;;5018317;28;20225;-69
2022/11/26 07:01:48;;;;;;;2.90;2.60;;;17.50;70.20;;;;;;5051875;28;20190;-69
2022/11/26 07:04:14;;;;;;;3.58;2.58;;;17.50;70.20;;;;;;5052680;28;20186;-69
2022/11/26 07:06:40;;;;;;;2.72;2.30;;;17.50;70.20;;;;;;5034674;28;20182;-69
2022/11/26 07:09:09;;;;;;;2.88;2.40;;;17.50;70.20;;;;;;5034793;28;20198;-70
2022/11/26 07:11:36;;;;;;;3.35;2.67;;;17.50;70.20;;;;;;5018110;28;20214;-70
2022/11/26 07:14:03;;;;;;;2.50;2.30;;;17.50;70.20;;;;;;5034766;28;20642;-69
2022/11/26 07:16:29;;;;;;;2.88;2.60;;;17.50;70.20;;;;;;5034346;28;20183;-70
2022/11/26 07:18:56;;;;;;;2.75;2.40;;;17.50;70.20;;;;;;5034803;28;20264;-69
2022/11/26 07:21:23;;;;;;;2.65;2.45;;;17.50;70.20;;;;;;5034689;28;20228;-70
2022/11/26 07:23:50;;;;;;;2.72;2.53;;;17.50;70.20;;;;;;5051166;28;20719;-69
2022/11/26 07:26:19;;;;;;;3.28;2.50;;;17.50;70.20;;;;;;5034230;28;20297;-69
2022/11/26 07:28:48;;;;;;;2.53;2.28;;;17.50;70.20;;;;;;5034747;28;20197;-70
2022/11/26 07:31:18;;;;;;;2.92;2.58;;;17.50;70.20;;;;;;5034340;28;20185;-68
2022/11/26 07:33:46;;;;;;;3.17;2.85;;;17.50;70.20;;;;;;5034298;28;20233;-69
2022/11/26 07:36:27;;;;;;;3.03;2.60;;;17.50;70.20;;;;;;5034144;28;20289;-69
2022/11/26 07:38:59;;;;;;;4.65;2.85;;;17.50;70.20;;;;;;5017725;28;20211;-69
2022/11/26 07:41:27;;;;;;;3.00;2.70;;;17.60;70.30;;;;;;5034506;28;20171;-69
2022/11/26 07:43:54;;;;;;;3.35;3.05;;;17.60;70.30;;;;;;5034420;28;20189;-69
2022/11/26 07:46:23;;;;;;;3.05;2.72;;;17.50;70.20;;;;;;5033922;28;20286;-69
2022/11/26 07:48:49;;;;;;;3.75;2.67;;;17.50;70.20;;;;;;5033909;28;20240;-70
2022/11/26 07:51:35;;;;;;;3.25;2.78;;;17.50;70.20;;;;;;5033797;28;20606;-69
2022/11/26 07:54:07;;;;;;;3.30;2.80;;;17.50;70.20;;;;;;5033179;28;20202;-69
2022/11/26 07:56:33;;;;;;;3.03;2.63;;;17.50;70.20;;;;;;5051684;28;20191;-69
2022/11/26 07:59:00;;;;;;;4.28;2.80;;;17.50;70.20;;;;;;5034015;28;20210;-70
2022/11/26 08:01:30;;;;;;;3.67;2.90;;;17.50;70.20;;;;;;5033486;28;20174;-70
2022/11/26 08:03:59;;;;;;;2.75;2.55;;;17.50;70.20;;;;;;5033655;28;20700;-70
2022/11/26 08:06:29;;;;;;;3.28;2.97;;;17.60;70.30;;;;;;5033417;28;20195;-69
2022/11/26 08:08:57;;;;;;;3.38;2.90;;;17.60;70.30;;;;;;5050470;28;20194;-70
2022/11/26 08:11:29;;;;;;;3.90;3.08;;;17.60;70.30;;;;;;5033588;28;20183;-70
2022/11/26 08:14:05;;;;;;;3.40;3.10;;;17.60;70.30;;;;;;5033660;28;20194;-70
2022/11/26 08:16:31;;;;;;;3.47;2.88;;;17.60;70.30;;;;;;5050085;28;20186;-70
2022/11/26 08:19:01;;;;;;;4.38;2.90;;;17.60;70.30;;;;;;5033587;28;20213;-70
2022/11/26 08:21:27;;;;;;;3.45;2.45;;;17.60;70.30;;;;;;5033709;28;20183;-70
2022/11/26 08:23:53;;;;;;;3.35;3.05;;;17.60;70.30;;;;;;5033492;28;20179;-69
2022/11/26 08:26:20;;;;;;;3.05;2.70;;;17.60;70.30;;;;;;5049819;28;20206;-70
2022/11/26 08:28:46;;;;;;;3.17;2.88;;;17.60;70.30;;;;;;5051473;28;20174;-69
2022/11/26 08:31:15;;;;;;;3.47;2.65;;;17.60;70.30;;;;;;5033537;28;20178;-70
2022/11/26 08:33:41;;;;;;;3.40;3.10;;;17.60;70.30;;;;;;5050233;28;20185;-70
2022/11/26 08:36:08;;;;;;;3.58;2.70;;;17.60;70.30;;;;;;5033784;28;20259;-69
2022/11/26 08:38:35;;;;;;;2.95;2.60;;;17.60;70.30;;;;;;5033819;28;20214;-69
2022/11/26 08:41:07;;;;;;;2.83;2.53;;;17.60;70.30;;;;;;5050436;28;20298;-69
2022/11/26 08:43:37;;;;;;;3.38;2.85;;;17.60;70.30;;;;;;5017730;28;20187;-69
2022/11/26 08:46:03;;;;;;;6.13;3.05;;;17.60;70.30;;;;;;5020685;28;20205;-70
2022/11/26 08:48:31;;;;;;;2.90;2.38;;;17.60;70.30;;;;;;5037447;28;20236;-69
2022/11/26 08:51:04;;;;;;;2.70;2.47;;;17.60;70.40;;;;;;5037436;28;20233;-70
2022/11/26 08:53:31;;;;;;;3.08;2.78;;;17.60;70.30;;;;;;5054025;28;20183;-69
2022/11/26 08:56:06;;;;;;;3.70;2.45;;;17.70;70.40;;;;;;5037042;28;20240;-69
2022/11/26 08:58:35;;;;;;;2.95;2.67;;;17.70;70.50;;;;;;5020730;28;20181;-69
2022/11/26 09:01:10;;;;;;;3.33;2.40;;;17.70;70.50;;;;;;5037539;28;20270;-70
2022/11/26 09:03:36;;;;;;;2.97;2.42;;;17.60;70.30;;;;;;5067720;22;20233;-68
2022/11/26 09:06:04;;;;;;;3.78;2.65;;;17.60;70.30;;;;;;5053466;28;20612;-69
2022/11/26 09:08:30;;;;;;;3.17;2.20;;;17.60;70.30;;;;;;5053737;28;20217;-69
2022/11/26 09:10:57;;;;;;;4.30;2.88;;;17.60;70.30;;;;;;5054718;28;20190;-69
2022/11/26 09:13:22;;;;;;;2.35;2.15;;;17.70;70.40;;;;;;5050467;28;20298;-69
2022/11/26 09:15:49;;;;;;;3.03;2.50;;;17.70;70.40;;;;;;5034641;28;20278;-69
2022/11/26 09:18:16;;;;;;;2.22;2.03;;;17.70;70.40;;;;;;5033631;28;20187;-69
2022/11/26 09:20:42;;;;;;;3.28;2.50;;;17.70;70.40;;;;;;5017077;28;20207;-69
2022/11/26 09:23:08;;;;;;;3.22;2.40;;;17.60;70.30;;;;;;5050376;28;20218;-69
2022/11/26 09:25:38;;;;;;;3.92;2.38;;;17.70;70.50;;;;;;5033253;28;20221;-69
2022/11/26 09:28:04;;;;;;;2.40;2.05;;;17.70;70.40;;;;;;5019982;28;20211;-68
2022/11/26 09:30:31;;;;;;;2.15;1.92;;;17.70;70.50;;;;;;5044781;28;20225;-69
2022/11/26 09:32:57;;;;;;;2.17;1.98;;;17.70;70.40;;;;;;5054475;28;20336;-69
2022/11/26 09:35:22;;;;;;;5.35;2.60;;;17.70;70.50;;;;;;5036380;28;20209;-69
2022/11/26 09:37:48;;;;;;;2.67;2.00;;;17.70;70.50;;;;;;5069945;28;20189;-69
2022/11/26 09:40:19;;;;;;;2.50;2.30;;;17.70;70.50;;;;;;5053000;28;20214;-69
2022/11/26 09:43:12;;;;;;;2.30;2.10;;;17.70;70.40;;;;;;5037117;28;20198;-68
2022/11/26 09:45:49;;;;;;;3.38;2.00;;;17.70;70.40;;;;;;5036257;28;20186;-69
2022/11/26 09:48:21;;;;;;;2.58;2.13;;;17.70;70.40;;;;;;5069721;28;20174;-69
2022/11/26 09:50:55;;;;;;;2.22;1.98;;;17.70;70.40;;;;;;5053053;28;20599;-68
2022/11/26 09:53:26;;;;;;;2.22;1.75;;;17.70;70.40;;;;;;5052955;28;20198;-69
2022/11/26 09:55:54;;;;;;;2.67;1.98;;;17.70;70.40;;;;;;5052351;28;20179;-69
2022/11/26 09:58:35;;;;;;;3.50;2.30;;;17.70;70.40;;;;;;5052906;28;20193;-69
2022/11/26 10:01:05;;;;;;;3.03;2.13;;;17.70;70.40;;;;;;5036454;28;20203;-69
2022/11/26 10:03:35;;;;;;;2.97;1.98;;;17.70;70.50;;;;;;5052536;28;20210;-69
2022/11/26 10:06:24;;;;;;;2.15;1.90;;;17.70;70.50;;;;;;5053661;28;20179;-68
2022/11/26 10:09:37;;;;;;;3.30;1.90;;;17.70;70.40;;;;;;5036008;28;20190;-69
2022/11/26 10:12:19;;;;;;;2.00;1.80;;;17.70;70.50;;;;;;5052629;28;20189;-67
2022/11/26 10:15:26;;;;;;;2.25;1.95;;;17.70;70.40;;;;;;5036252;28;20194;-69
2022/11/26 10:18:24;;;;;;;2.42;2.03;;;17.70;70.40;;;;;;4985590;28;20194;-69
2022/11/26 10:21:12;;;;;;;2.78;2.05;;;17.70;70.40;;;;;;5052730;28;20214;-69
2022/11/26 10:23:56;;;;;;;2.20;1.95;;;17.70;70.40;;;;;;5035906;28;20208;-69
2022/11/26 10:26:38;;;;;;;2.13;1.88;;;17.70;70.40;;;;;;5052381;28;20182;-69
2022/11/26 10:29:40;;;;;;;2.15;1.95;;;17.70;70.50;;;;;;5068842;28;20221;-69
2022/11/26 10:32:22;;;;;;;2.28;1.80;;;17.80;70.50;;;;;;5053179;28;20166;-69
2022/11/26 10:34:52;;;;;;;2.33;2.00;;;17.70;70.40;;;;;;5035460;28;20201;-68
2022/11/26 10:37:22;;;;;;;2.78;2.00;;;17.70;70.40;;;;;;5035251;28;20190;-69
2022/11/26 10:39:54;;;;;;;3.38;1.77;;;17.80;70.50;;;;;;5035498;28;20198;-69
2022/11/26 10:42:22;;;;;;;2.35;1.77;;;17.80;70.50;;;;;;5052276;28;20216;-69
2022/11/26 10:44:51;;;;;;;2.40;1.63;;;17.70;70.40;;;;;;5053216;28;20186;-69
2022/11/26 10:47:31;;;;;;;1.80;1.50;;;17.70;70.40;;;;;;5035062;28;20183;-69
2022/11/26 10:50:02;;;;;;;2.00;1.80;;;17.80;70.50;;;;;;5051859;28;20185;-69
2022/11/26 10:52:32;;;;;;;2.58;2.20;;;17.80;70.50;;;;;;5035047;28;20179;-69
2022/11/26 10:55:28;;;;;;;2.72;1.90;;;17.80;71.30;;;;;;5035397;28;20186;-69
2022/11/26 10:58:01;;;;;;;3.08;1.58;;;17.80;70.50;;;;;;5051671;28;20227;-69
2022/11/26 11:00:43;;;;;;;2.20;1.70;;;17.70;70.40;;;;;;5053080;28;20194;-69
2022/11/26 11:03:24;;;;;;;3.40;1.90;;;17.70;70.50;;;;;;5034937;28;20210;-69
2022/11/26 11:05:50;;;;;;;2.88;1.75;;;17.80;70.50;;;;;;5051179;28;20182;-68
2022/11/26 11:08:31;;;;;;;2.63;1.70;;;17.70;70.40;;;;;;5034226;28;20192;-68
2022/11/26 11:11:00;;;;;;;4.63;1.90;;;17.70;70.50;;;;;;5051399;28;20183;-68
2022/11/26 11:13:42;;;;;;;1.70;1.50;;;17.80;71.30;;;;;;5051363;28;20224;-69
2022/11/26 11:16:10;;;;;;;1.92;1.67;;;17.80;70.60;;;;;;5034527;28;20673;-69
2022/11/26 11:18:45;;;;;;;2.55;1.52;;;17.80;70.50;;;;;;5034608;28;20184;-68
2022/11/26 11:21:17;;;;;;;2.15;1.70;;;17.80;70.50;;;;;;5021872;28;20174;-68
2022/11/26 11:23:43;;;;;;;2.63;1.75;;;17.80;70.50;;;;;;5051094;28;20213;-69
2022/11/26 11:26:27;;;;;;;1.88;1.63;;;17.80;70.60;;;;;;5034552;28;20266;-69
2022/11/26 11:28:55;;;;;;;2.30;1.85;;;17.80;70.30;;;;;;5034903;28;20198;-69
2022/11/26 11:31:24;;;;;;;2.20;1.65;;;17.80;70.50;;;;;;5051029;28;20622;-69
2022/11/26 11:34:09;;;;;;;2.45;1.55;;;17.80;70.30;;;;;;5067718;28;20221;-69
2022/11/26 11:36:35;;;;;;;2.38;1.70;;;17.80;70.50;;;;;;5051061;28;20193;-69
2022/11/26 11:39:03;;;;;;;1.73;1.48;;;17.80;70.50;;;;;;5034730;28;20255;-67
2022/11/26 11:41:45;;;;;;;1.67;1.55;;;17.80;70.50;;;;;;5050790;28;20278;-69
2022/11/26 11:44:23;;;;;;;2.08;1.80;;;17.80;70.50;;;;;;5050402;28;20694;-69
2022/11/26 11:47:10;;;;;;;1.77;1.42;;;17.80;70.30;;;;;;5033997;28;20614;-68
2022/11/26 11:50:18;;;;;;;2.60;1.65;;;17.80;70.30;;;;;;5050815;28;20190;-68
2022/11/26 11:52:58;;;;;;;2.30;1.83;;;17.80;70.20;;;;;;5020921;28;20218;-69
2022/11/26 11:55:48;;;;;;;1.83;1.58;;;17.80;71.00;;;;;;5047827;28;20190;-68
2022/11/26 11:59:01;;;;;;;2.38;1.60;;;17.80;70.40;;;;;;5010850;28;20270;-69
2022/11/26 12:02:17;;;;;;;2.28;1.67;;;17.80;70.50;;;;;;5013776;28;20658;-68
2022/11/26 12:05:39;;;;;;;2.00;1.50;;;17.80;70.20;;;;;;4994586;28;20204;-69
2022/11/26 12:08:27;;;;;;;2.22;1.63;;;17.80;70.20;;;;;;5001567;28;20204;-69
2022/11/26 12:11:56;;;;;;;2.03;1.50;;;17.80;70.00;;;;;;5005153;28;20562;-69
2022/11/26 12:14:50;;;;;;;2.38;1.52;;;17.80;70.00;;;;;;4973957;28;20262;-68
2022/11/26 12:17:38;;;;;;;2.97;1.80;;;17.80;70.50;;;;;;5021943;28;20198;-69
2022/11/26 12:20:43;;;;;;;2.22;1.50;;;17.80;70.10;;;;;;5048218;28;20202;-69
2022/11/26 12:23:39;;;;;;;2.58;1.48;;;17.80;70.10;;;;;;4981896;28;20210;-70
2022/11/26 12:26:08;;;;;;;2.50;1.50;;;17.80;70.20;;;;;;5043782;28;20181;-68
2022/11/26 12:28:47;;;;;;;2.33;1.63;;;17.80;70.20;;;;;;5022105;28;20186;-69
2022/11/26 12:31:25;;;;;;;3.90;1.70;;;17.80;70.10;;;;;;5051122;28;20201;-69
2022/11/26 12:34:22;;;;;;;2.70;1.70;;;17.80;70.10;;;;;;5036066;28;20304;-69
2022/11/26 12:37:04;;;;;;;1.95;1.25;;;17.80;70.00;;;;;;5034300;28;20241;-69
2022/11/26 12:39:44;;;;;;;3.38;1.65;;;17.80;70.10;;;;;;5035541;28;20214;-69
2022/11/26 12:42:21;;;;;;;1.70;1.33;;;17.80;70.10;;;;;;5035603;28;20616;-69
2022/11/26 12:44:52;;;;;;;2.55;1.60;;;17.80;70.10;;;;;;5034422;28;20179;-69
2022/11/26 12:47:27;;;;;;;2.38;1.38;;;17.80;70.20;;;;;;5033925;28;20179;-69
2022/11/26 12:50:19;;;;;;;1.58;1.17;;;17.80;70.20;;;;;;5034501;28;20277;-69
2022/11/26 12:53:29;;;;;;;2.38;1.50;;;17.80;70.10;;;;;;5034230;28;20225;-69
2022/11/26 12:56:08;;;;;;;1.40;1.30;;;17.80;70.00;;;;;;5017396;28;20207;-70
2022/11/26 12:58:57;;;;;;;1.85;1.42;;;17.80;70.20;;;;;;5018296;28;20198;-69
2022/11/26 13:01:24;;;;;;;1.52;1.30;;;17.80;70.20;;;;;;5034183;28;20670;-69
2022/11/26 13:03:51;;;;;;;1.85;1.33;;;17.80;70.20;;;;;;5034195;28;20219;-69
2022/11/26 13:06:33;;;;;;;2.88;1.60;;;17.80;70.20;;;;;;5033821;28;20175;-69
2022/11/26 13:09:27;;;;;;;2.03;1.30;;;17.80;70.20;;;;;;5034366;28;20176;-69
2022/11/26 13:12:05;;;;;;;1.42;1.30;;;17.80;70.00;;;;;;5017668;28;20276;-69
2022/11/26 13:14:49;;;;;;;2.55;1.20;;;17.80;70.20;;;;;;5033706;28;20211;-69